Station Historical Data
Daily Summary for March 21, 2017 Units:  Both    English   Metric
« Previous Day
Next Day »
Daily Weekly Monthly Yearly Custom
  High: Low: Average:
Temperature: 45.8 °F /  7.7 °C 32.9 °F /  0.5 °C 38.8 °F /  3.8 °C
Dew Point: 37.1 °F /  2.8 °C 23.5 °F /  -4.7 °C 31.3 °F /  -0.4 °C
Humidity: 85% 51% 75%
Wind Speed: 18.0mph /  29km/h - 5.1mph /  8.2km/h
Wind Gust: 23.0mph /  37km/h - -
Wind- - WSW
Pressure: 30.07 in /  1018.2 hPa 29.92 in /  1013.1 hPa -
Precipitation: 0.00 in /  0 mm    
Historical Graphs
 
 
Tabular Data for March 21, 2017
Time Temperature Dew Point Pressure Wind Wind Speed Wind Gust Humidity Rainfall Rate (Hourly)
00:04 37.7 °F /  3.2 °C 31.1 °F /  -0.5 °C 30.02in /  1016.5hPa Calm   2.0mph /  3.2km/h 77% 0.00in /  0mm
00:09 37.7 °F /  3.2 °C 31.5 °F /  -0.3 °C 30.02in /  1016.5hPa Calm   2.0mph /  3.2km/h 78% 0.00in /  0mm
00:14 37.6 °F /  3.1 °C 31.4 °F /  -0.3 °C 30.02in /  1016.5hPa Calm     78% 0.00in /  0mm
00:19 37.5 °F /  3.1 °C 31.3 °F /  -0.4 °C 30.02in /  1016.5hPa Calm     78% 0.00in /  0mm
00:24 37.5 °F /  3.1 °C 31.3 °F /  -0.4 °C 30.02in /  1016.5hPa Calm     78% 0.00in /  0mm
00:29 37.4 °F /  3 °C 31.2 °F /  -0.4 °C 30.01in /  1016.1hPa Calm     78% 0.00in /  0mm
00:34 37.3 °F /  2.9 °C 31.4 °F /  -0.3 °C 30.01in /  1016.1hPa Calm     79% 0.00in /  0mm
00:39 37.2 °F /  2.9 °C 31.3 °F /  -0.4 °C 30.01in /  1016.1hPa Calm     79% 0.00in /  0mm
00:44 37.2 °F /  2.9 °C 31.3 °F /  -0.4 °C 30.01in /  1016.1hPa Calm     79% 0.00in /  0mm
00:49 37.3 °F /  2.9 °C 31.4 °F /  -0.3 °C 30.01in /  1016.1hPa Calm     79% 0.00in /  0mm
00:54 37.2 °F /  2.9 °C 31.3 °F /  -0.4 °C 30.01in /  1016.1hPa Calm     79% 0.00in /  0mm
00:59 37.1 °F /  2.8 °C 31.2 °F /  -0.4 °C 30.01in /  1016.1hPa Calm     79% 0.00in /  0mm
01:04 36.9 °F /  2.7 °C 31.0 °F /  -0.6 °C 30.01in /  1016.1hPa Calm     79% 0.00in /  0mm
01:09 36.7 °F /  2.6 °C 30.8 °F /  -0.7 °C 30.01in /  1016.1hPa Calm     79% 0.00in /  0mm
01:14 36.4 °F /  2.4 °C 30.8 °F /  -0.7 °C 30.01in /  1016.1hPa Calm     80% 0.00in /  0mm
01:19 36.1 °F /  2.3 °C 30.5 °F /  -0.8 °C 30.01in /  1016.1hPa Calm     80% 0.00in /  0mm
01:24 35.9 °F /  2.2 °C 30.6 °F /  -0.8 °C 30.01in /  1016.1hPa Calm     81% 0.00in /  0mm
01:29 35.7 °F /  2.1 °C 30.4 °F /  -0.9 °C 30.01in /  1016.1hPa Calm     81% 0.00in /  0mm
01:34 35.5 °F /  1.9 °C 30.2 °F /  -1 °C 30.01in /  1016.1hPa Calm     81% 0.00in /  0mm
01:39 35.4 °F /  1.9 °C 30.1 °F /  -1.1 °C 30.01in /  1016.1hPa Calm     81% 0.00in /  0mm
01:44 35.2 °F /  1.8 °C 30.3 °F /  -0.9 °C 30.01in /  1016.1hPa Calm     82% 0.00in /  0mm
01:49 35.0 °F /  1.7 °C 30.1 °F /  -1.1 °C 30.01in /  1016.1hPa Calm     82% 0.00in /  0mm
01:54 35.1 °F /  1.7 °C 30.2 °F /  -1 °C 30.01in /  1016.1hPa Calm     82% 0.00in /  0mm
01:59 35.2 °F /  1.8 °C 30.3 °F /  -0.9 °C 30.01in /  1016.1hPa Calm     82% 0.00in /  0mm
02:04 35.1 °F /  1.7 °C 30.2 °F /  -1 °C 30.01in /  1016.1hPa Calm     82% 0.00in /  0mm
02:09 35.0 °F /  1.7 °C 30.1 °F /  -1.1 °C 30.00in /  1015.8hPa Calm     82% 0.00in /  0mm
02:19 35.0 °F /  1.7 °C 30.4 °F /  -0.9 °C 30.00in /  1015.8hPa Calm     83% 0.00in /  0mm
02:24 35.1 °F /  1.7 °C 30.5 °F /  -0.8 °C 30.00in /  1015.8hPa Calm     83% 0.00in /  0mm
02:29 35.1 °F /  1.7 °C 30.5 °F /  -0.8 °C 30.00in /  1015.8hPa Calm     83% 0.00in /  0mm
02:34 35.2 °F /  1.8 °C 30.6 °F /  -0.8 °C 30.00in /  1015.8hPa Calm     83% 0.00in /  0mm
02:39 35.1 °F /  1.7 °C 30.5 °F /  -0.8 °C 30.00in /  1015.8hPa Calm     83% 0.00in /  0mm
02:44 35.1 °F /  1.7 °C 30.5 °F /  -0.8 °C 30.00in /  1015.8hPa Calm     83% 0.00in /  0mm
02:49 35.2 °F /  1.8 °C 30.6 °F /  -0.8 °C 30.00in /  1015.8hPa Calm     83% 0.00in /  0mm
02:54 35.1 °F /  1.7 °C 30.5 °F /  -0.8 °C 30.00in /  1015.8hPa Calm     83% 0.00in /  0mm
02:59 35.1 °F /  1.7 °C 30.5 °F /  -0.8 °C 30.00in /  1015.8hPa Calm     83% 0.00in /  0mm
03:04 35.4 °F /  1.9 °C 30.8 °F /  -0.7 °C 30.00in /  1015.8hPa Calm     83% 0.00in /  0mm
03:09 35.5 °F /  1.9 °C 30.8 °F /  -0.7 °C 30.00in /  1015.8hPa Calm     83% 0.00in /  0mm
03:14 35.6 °F /  2 °C 30.9 °F /  -0.6 °C 30.00in /  1015.8hPa Calm     83% 0.00in /  0mm
03:19 35.7 °F /  2.1 °C 30.7 °F /  -0.7 °C 30.00in /  1015.8hPa Calm     82% 0.00in /  0mm
03:24 35.7 °F /  2.1 °C 30.7 °F /  -0.7 °C 30.00in /  1015.8hPa Calm     82% 0.00in /  0mm
03:29 35.9 °F /  2.2 °C 30.9 °F /  -0.6 °C 30.00in /  1015.8hPa Calm     82% 0.00in /  0mm
03:34 35.9 °F /  2.2 °C 30.9 °F /  -0.6 °C 30.00in /  1015.8hPa Calm     82% 0.00in /  0mm
03:39 35.9 °F /  2.2 °C 30.9 °F /  -0.6 °C 30.00in /  1015.8hPa Calm     82% 0.00in /  0mm
03:44 36.0 °F /  2.2 °C 31.0 °F /  -0.6 °C 30.00in /  1015.8hPa Calm     82% 0.00in /  0mm
03:49 36.1 °F /  2.3 °C 31.1 °F /  -0.5 °C 30.00in /  1015.8hPa Calm     82% 0.00in /  0mm
03:54 36.1 °F /  2.3 °C 31.1 °F /  -0.5 °C 30.00in /  1015.8hPa Calm     82% 0.00in /  0mm
03:59 36.1 °F /  2.3 °C 31.1 °F /  -0.5 °C 30.00in /  1015.8hPa Calm     82% 0.00in /  0mm
04:04 36.2 °F /  2.3 °C 31.2 °F /  -0.4 °C 30.00in /  1015.8hPa Calm     82% 0.00in /  0mm
04:09 36.2 °F /  2.3 °C 30.9 °F /  -0.6 °C 30.00in /  1015.8hPa Calm     81% 0.00in /  0mm
04:14 36.3 °F /  2.4 °C 31.0 °F /  -0.6 °C 30.00in /  1015.8hPa Calm     81% 0.00in /  0mm
04:19 36.2 °F /  2.3 °C 30.9 °F /  -0.6 °C 30.00in /  1015.8hPa Calm     81% 0.00in /  0mm
04:24 36.2 °F /  2.3 °C 30.9 °F /  -0.6 °C 30.00in /  1015.8hPa Calm     81% 0.00in /  0mm
04:29 36.3 °F /  2.4 °C 31.0 °F /  -0.6 °C 29.99in /  1015.5hPa Calm     81% 0.00in /  0mm
04:34 36.4 °F /  2.4 °C 31.1 °F /  -0.5 °C 29.99in /  1015.5hPa South 3.0mph /  4.8km/h 3.0mph /  4.8km/h 81% 0.00in /  0mm
04:39 36.4 °F /  2.4 °C 31.1 °F /  -0.5 °C 29.99in /  1015.5hPa SSW 2.0mph /  3.2km/h 3.0mph /  4.8km/h 81% 0.00in /  0mm
04:44 36.4 °F /  2.4 °C 31.1 °F /  -0.5 °C 29.99in /  1015.5hPa Calm   2.0mph /  3.2km/h 81% 0.00in /  0mm
04:49 36.4 °F /  2.4 °C 31.1 °F /  -0.5 °C 29.98in /  1015.1hPa Calm     81% 0.00in /  0mm
04:54 36.4 °F /  2.4 °C 31.1 °F /  -0.5 °C 29.98in /  1015.1hPa SW 1.0mph /  1.6km/h 5.0mph /  8km/h 81% 0.00in /  0mm
04:59 36.4 °F /  2.4 °C 31.1 °F /  -0.5 °C 29.99in /  1015.5hPa Calm   3.0mph /  4.8km/h 81% 0.00in /  0mm
05:04 36.4 °F /  2.4 °C 31.1 °F /  -0.5 °C 29.98in /  1015.1hPa SW 1.0mph /  1.6km/h 4.0mph /  6.4km/h 81% 0.00in /  0mm
05:09 36.3 °F /  2.4 °C 31.0 °F /  -0.6 °C 29.98in /  1015.1hPa SW 1.0mph /  1.6km/h 4.0mph /  6.4km/h 81% 0.00in /  0mm
05:14 36.4 °F /  2.4 °C 31.1 °F /  -0.5 °C 29.98in /  1015.1hPa SW 1.0mph /  1.6km/h 4.0mph /  6.4km/h 81% 0.00in /  0mm
05:19 36.3 °F /  2.4 °C 31.0 °F /  -0.6 °C 29.98in /  1015.1hPa SW 1.0mph /  1.6km/h 3.0mph /  4.8km/h 81% 0.00in /  0mm
05:24 36.3 °F /  2.4 °C 31.0 °F /  -0.6 °C 29.98in /  1015.1hPa SW 1.0mph /  1.6km/h 4.0mph /  6.4km/h 81% 0.00in /  0mm
05:29 36.2 °F /  2.3 °C 30.9 °F /  -0.6 °C 29.98in /  1015.1hPa SSW 2.0mph /  3.2km/h 4.0mph /  6.4km/h 81% 0.00in /  0mm
05:34 36.2 °F /  2.3 °C 30.9 °F /  -0.6 °C 29.98in /  1015.1hPa SW 2.0mph /  3.2km/h 4.0mph /  6.4km/h 81% 0.00in /  0mm
05:39 36.2 °F /  2.3 °C 31.2 °F /  -0.4 °C 29.98in /  1015.1hPa SW 2.0mph /  3.2km/h 4.0mph /  6.4km/h 82% 0.00in /  0mm
05:44 36.1 °F /  2.3 °C 31.1 °F /  -0.5 °C 29.98in /  1015.1hPa SW 1.0mph /  1.6km/h 4.0mph /  6.4km/h 82% 0.00in /  0mm
05:49 36.1 °F /  2.3 °C 31.1 °F /  -0.5 °C 29.98in /  1015.1hPa Calm   4.0mph /  6.4km/h 82% 0.00in /  0mm
05:54 36.1 °F /  2.3 °C 31.1 °F /  -0.5 °C 29.98in /  1015.1hPa SSW 2.0mph /  3.2km/h 4.0mph /  6.4km/h 82% 0.00in /  0mm
05:59 36.1 °F /  2.3 °C 31.1 °F /  -0.5 °C 29.98in /  1015.1hPa SW 3.0mph /  4.8km/h 5.0mph /  8km/h 82% 0.00in /  0mm
06:04 36.0 °F /  2.2 °C 31.0 °F /  -0.6 °C 29.98in /  1015.1hPa SW 2.0mph /  3.2km/h 5.0mph /  8km/h 82% 0.00in /  0mm
06:09 36.0 °F /  2.2 °C 31.0 °F /  -0.6 °C 29.98in /  1015.1hPa SW 1.0mph /  1.6km/h 3.0mph /  4.8km/h 82% 0.00in /  0mm
06:14 36.0 °F /  2.2 °C 31.0 °F /  -0.6 °C 29.98in /  1015.1hPa WSW 1.0mph /  1.6km/h 4.0mph /  6.4km/h 82% 0.00in /  0mm
06:19 36.1 °F /  2.3 °C 31.1 °F /  -0.5 °C 29.98in /  1015.1hPa Calm   4.0mph /  6.4km/h 82% 0.00in /  0mm
06:24 36.1 °F /  2.3 °C 31.1 °F /  -0.5 °C 29.98in /  1015.1hPa SW 1.0mph /  1.6km/h 5.0mph /  8km/h 82% 0.00in /  0mm
06:29 36.1 °F /  2.3 °C 31.1 °F /  -0.5 °C 29.98in /  1015.1hPa SSW 3.0mph /  4.8km/h 5.0mph /  8km/h 82% 0.00in /  0mm
06:34 36.2 °F /  2.3 °C 31.2 °F /  -0.4 °C 29.98in /  1015.1hPa WSW 3.0mph /  4.8km/h 6.0mph /  9.7km/h 82% 0.00in /  0mm
06:39 36.2 °F /  2.3 °C 31.2 °F /  -0.4 °C 29.98in /  1015.1hPa WSW 3.0mph /  4.8km/h 8.0mph /  12.9km/h 82% 0.00in /  0mm
06:44 36.3 °F /  2.4 °C 31.3 °F /  -0.4 °C 29.98in /  1015.1hPa WSW 3.0mph /  4.8km/h 8.0mph /  12.9km/h 82% 0.00in /  0mm
06:49 36.3 °F /  2.4 °C 31.3 °F /  -0.4 °C 29.98in /  1015.1hPa WSW 2.0mph /  3.2km/h 5.0mph /  8km/h 82% 0.00in /  0mm
06:54 36.2 °F /  2.3 °C 31.2 °F /  -0.4 °C 29.98in /  1015.1hPa SW 4.0mph /  6.4km/h 5.0mph /  8km/h 82% 0.00in /  0mm
06:59 36.2 °F /  2.3 °C 31.2 °F /  -0.4 °C 29.98in /  1015.1hPa WSW 2.0mph /  3.2km/h 5.0mph /  8km/h 82% 0.00in /  0mm
07:04 36.2 °F /  2.3 °C 31.2 °F /  -0.4 °C 29.99in /  1015.5hPa WSW 2.0mph /  3.2km/h 5.0mph /  8km/h 82% 0.00in /  0mm
07:09 36.2 °F /  2.3 °C 31.2 °F /  -0.4 °C 29.99in /  1015.5hPa WSW 3.0mph /  4.8km/h 5.0mph /  8km/h 82% 0.00in /  0mm
07:14 36.3 °F /  2.4 °C 31.3 °F /  -0.4 °C 29.99in /  1015.5hPa WSW 3.0mph /  4.8km/h 5.0mph /  8km/h 82% 0.00in /  0mm
07:19 36.3 °F /  2.4 °C 31.3 °F /  -0.4 °C 29.99in /  1015.5hPa WSW 3.0mph /  4.8km/h 6.0mph /  9.7km/h 82% 0.00in /  0mm
07:24 36.3 °F /  2.4 °C 31.3 °F /  -0.4 °C 29.99in /  1015.5hPa WSW 2.0mph /  3.2km/h 5.0mph /  8km/h 82% 0.00in /  0mm
07:29 36.4 °F /  2.4 °C 31.4 °F /  -0.3 °C 29.99in /  1015.5hPa WSW 2.0mph /  3.2km/h 5.0mph /  8km/h 82% 0.00in /  0mm
07:34 36.4 °F /  2.4 °C 31.4 °F /  -0.3 °C 29.99in /  1015.5hPa WSW 3.0mph /  4.8km/h 7.0mph /  11.3km/h 82% 0.00in /  0mm
07:39 36.4 °F /  2.4 °C 31.4 °F /  -0.3 °C 29.99in /  1015.5hPa WSW 3.0mph /  4.8km/h 4.0mph /  6.4km/h 82% 0.00in /  0mm
07:44 36.4 °F /  2.4 °C 31.4 °F /  -0.3 °C 29.99in /  1015.5hPa WSW 2.0mph /  3.2km/h 4.0mph /  6.4km/h 82% 0.00in /  0mm
07:49 36.3 °F /  2.4 °C 31.6 °F /  -0.2 °C 29.99in /  1015.5hPa WSW 2.0mph /  3.2km/h 4.0mph /  6.4km/h 83% 0.00in /  0mm
07:54 36.3 °F /  2.4 °C 31.6 °F /  -0.2 °C 29.99in /  1015.5hPa SW 2.0mph /  3.2km/h 4.0mph /  6.4km/h 83% 0.00in /  0mm
07:59 36.3 °F /  2.4 °C 31.6 °F /  -0.2 °C 29.99in /  1015.5hPa SW 2.0mph /  3.2km/h 5.0mph /  8km/h 83% 0.00in /  0mm
08:04 36.1 °F /  2.3 °C 31.4 °F /  -0.3 °C 29.99in /  1015.5hPa SW 2.0mph /  3.2km/h 5.0mph /  8km/h 83% 0.00in /  0mm
08:09 36.0 °F /  2.2 °C 31.3 °F /  -0.4 °C 29.99in /  1015.5hPa WSW 5.0mph /  8km/h 5.0mph /  8km/h 83% 0.00in /  0mm
08:14 36.0 °F /  2.2 °C 31.6 °F /  -0.2 °C 30.00in /  1015.8hPa WSW 4.0mph /  6.4km/h 5.0mph /  8km/h 84% 0.00in /  0mm
08:19 36.0 °F /  2.2 °C 31.6 °F /  -0.2 °C 30.00in /  1015.8hPa West 2.0mph /  3.2km/h 6.0mph /  9.7km/h 84% 0.00in /  0mm
08:29 36.0 °F /  2.2 °C 31.6 °F /  -0.2 °C 30.00in /  1015.8hPa SW 3.0mph /  4.8km/h 4.0mph /  6.4km/h 84% 0.00in /  0mm
08:34 36.1 °F /  2.3 °C 32.0 °F /  0 °C 29.99in /  1015.5hPa SW 3.0mph /  4.8km/h 5.0mph /  8km/h 85% 0.00in /  0mm
08:39 36.3 °F /  2.4 °C 32.2 °F /  0.1 °C 30.00in /  1015.8hPa SW 4.0mph /  6.4km/h 4.0mph /  6.4km/h 85% 0.00in /  0mm
08:44 36.4 °F /  2.4 °C 32.0 °F /  0 °C 29.99in /  1015.5hPa SW 2.0mph /  3.2km/h 4.0mph /  6.4km/h 84% 0.00in /  0mm
08:49 36.5 °F /  2.5 °C 32.1 °F /  0.1 °C 29.99in /  1015.5hPa SW 3.0mph /  4.8km/h 6.0mph /  9.7km/h 84% 0.00in /  0mm
08:54 36.6 °F /  2.6 °C 32.2 °F /  0.1 °C 29.99in /  1015.5hPa SW 3.0mph /  4.8km/h 6.0mph /  9.7km/h 84% 0.00in /  0mm
08:59 36.6 °F /  2.6 °C 32.2 °F /  0.1 °C 30.00in /  1015.8hPa SW 3.0mph /  4.8km/h 6.0mph /  9.7km/h 84% 0.00in /  0mm
09:04 36.4 °F /  2.4 °C 32.0 °F /  0 °C 30.00in /  1015.8hPa SW 3.0mph /  4.8km/h 6.0mph /  9.7km/h 84% 0.00in /  0mm
09:09 36.9 °F /  2.7 °C 32.8 °F /  0.4 °C 29.99in /  1015.5hPa SW 3.0mph /  4.8km/h 5.0mph /  8km/h 85% 0.00in /  0mm
09:14 37.5 °F /  3.1 °C 33.1 °F /  0.6 °C 29.99in /  1015.5hPa WSW 2.0mph /  3.2km/h 5.0mph /  8km/h 84% 0.00in /  0mm
09:24 38.2 °F /  3.4 °C 33.2 °F /  0.7 °C 30.00in /  1015.8hPa SW 2.0mph /  3.2km/h 5.0mph /  8km/h 82% 0.00in /  0mm
09:29 38.5 °F /  3.6 °C 33.5 °F /  0.8 °C 29.99in /  1015.5hPa Calm   7.0mph /  11.3km/h 82% 0.00in /  0mm
09:34 38.8 °F /  3.8 °C 33.5 °F /  0.8 °C 29.99in /  1015.5hPa SW 3.0mph /  4.8km/h 7.0mph /  11.3km/h 81% 0.00in /  0mm
09:39 39.0 °F /  3.9 °C 33.7 °F /  0.9 °C 29.99in /  1015.5hPa WSW 2.0mph /  3.2km/h 6.0mph /  9.7km/h 81% 0.00in /  0mm
09:44 39.3 °F /  4.1 °C 34.0 °F /  1.1 °C 30.00in /  1015.8hPa WSW 2.0mph /  3.2km/h 7.0mph /  11.3km/h 81% 0.00in /  0mm
09:49 39.7 °F /  4.3 °C 34.3 °F /  1.3 °C 30.00in /  1015.8hPa SW 4.0mph /  6.4km/h 7.0mph /  11.3km/h 81% 0.00in /  0mm
09:54 39.7 °F /  4.3 °C 34.0 °F /  1.1 °C 30.00in /  1015.8hPa SW 4.0mph /  6.4km/h 7.0mph /  11.3km/h 80% 0.00in /  0mm
09:59 39.8 °F /  4.3 °C 34.1 °F /  1.2 °C 29.99in /  1015.5hPa SW 4.0mph /  6.4km/h 9.0mph /  14.5km/h 80% 0.00in /  0mm
10:04 39.7 °F /  4.3 °C 34.0 °F /  1.1 °C 29.99in /  1015.5hPa SW 5.0mph /  8km/h 11.0mph /  17.7km/h 80% 0.00in /  0mm
10:09 40.0 °F /  4.4 °C 34.3 °F /  1.3 °C 30.00in /  1015.8hPa SW 5.0mph /  8km/h 11.0mph /  17.7km/h 80% 0.00in /  0mm
10:14 40.3 °F /  4.6 °C 34.6 °F /  1.4 °C 29.99in /  1015.5hPa SSW 3.0mph /  4.8km/h 9.0mph /  14.5km/h 80% 0.00in /  0mm
10:19 40.4 °F /  4.7 °C 34.4 °F /  1.3 °C 30.00in /  1015.8hPa SW 5.0mph /  8km/h 9.0mph /  14.5km/h 79% 0.00in /  0mm
10:24 40.6 °F /  4.8 °C 34.9 °F /  1.6 °C 30.00in /  1015.8hPa SW 5.0mph /  8km/h 9.0mph /  14.5km/h 80% 0.00in /  0mm
10:29 40.5 °F /  4.7 °C 34.5 °F /  1.4 °C 30.00in /  1015.8hPa West 4.0mph /  6.4km/h 11.0mph /  17.7km/h 79% 0.00in /  0mm
10:34 40.5 °F /  4.7 °C 34.8 °F /  1.6 °C 30.00in /  1015.8hPa SSW 5.0mph /  8km/h 11.0mph /  17.7km/h 80% 0.00in /  0mm
10:39 40.5 °F /  4.7 °C 34.5 °F /  1.4 °C 30.00in /  1015.8hPa SW 6.0mph /  9.7km/h 11.0mph /  17.7km/h 79% 0.00in /  0mm
10:44 40.8 °F /  4.9 °C 35.1 °F /  1.7 °C 30.00in /  1015.8hPa SSW 9.0mph /  14.5km/h 10.0mph /  16.1km/h 80% 0.00in /  0mm
10:49 40.7 °F /  4.8 °C 34.7 °F /  1.5 °C 30.00in /  1015.8hPa SW 6.0mph /  9.7km/h 10.0mph /  16.1km/h 79% 0.00in /  0mm
10:54 41.1 °F /  5.1 °C 35.1 °F /  1.7 °C 30.00in /  1015.8hPa SW 6.0mph /  9.7km/h 10.0mph /  16.1km/h 79% 0.00in /  0mm
10:59 41.2 °F /  5.1 °C 35.2 °F /  1.8 °C 30.00in /  1015.8hPa SW 5.0mph /  8km/h 9.0mph /  14.5km/h 79% 0.00in /  0mm
11:04 41.5 °F /  5.3 °C 35.2 °F /  1.8 °C 30.00in /  1015.8hPa SW 4.0mph /  6.4km/h 9.0mph /  14.5km/h 78% 0.00in /  0mm
11:09 42.1 °F /  5.6 °C 35.7 °F /  2.1 °C 30.00in /  1015.8hPa WSW 5.0mph /  8km/h 9.0mph /  14.5km/h 78% 0.00in /  0mm
11:14 42.5 °F /  5.8 °C 35.5 °F /  1.9 °C 30.00in /  1015.8hPa WSW 5.0mph /  8km/h 10.0mph /  16.1km/h 76% 0.00in /  0mm
11:19 42.6 °F /  5.9 °C 35.6 °F /  2 °C 29.99in /  1015.5hPa SW 6.0mph /  9.7km/h 12.0mph /  19.3km/h 76% 0.00in /  0mm
11:24 42.7 °F /  5.9 °C 35.7 °F /  2.1 °C 30.00in /  1015.8hPa WSW 7.0mph /  11.3km/h 13.0mph /  20.9km/h 76% 0.00in /  0mm
11:29 42.4 °F /  5.8 °C 35.4 °F /  1.9 °C 30.00in /  1015.8hPa WSW 8.0mph /  12.9km/h 16.0mph /  25.7km/h 76% 0.00in /  0mm
11:34 42.7 °F /  5.9 °C 35.7 °F /  2.1 °C 30.00in /  1015.8hPa WSW 8.0mph /  12.9km/h 16.0mph /  25.7km/h 76% 0.00in /  0mm
11:39 42.8 °F /  6 °C 35.8 °F /  2.1 °C 30.00in /  1015.8hPa WSW 9.0mph /  14.5km/h 14.0mph /  22.5km/h 76% 0.00in /  0mm
11:44 43.0 °F /  6.1 °C 35.6 °F /  2 °C 30.00in /  1015.8hPa SW 7.0mph /  11.3km/h 12.0mph /  19.3km/h 75% 0.00in /  0mm
11:49 42.8 °F /  6 °C 35.4 °F /  1.9 °C 30.00in /  1015.8hPa WSW 8.0mph /  12.9km/h 15.0mph /  24.1km/h 75% 0.00in /  0mm
11:54 42.3 °F /  5.7 °C 35.3 °F /  1.8 °C 30.00in /  1015.8hPa WSW 8.0mph /  12.9km/h 15.0mph /  24.1km/h 76% 0.00in /  0mm
11:59 42.3 °F /  5.7 °C 35.6 °F /  2 °C 30.00in /  1015.8hPa SW 9.0mph /  14.5km/h 15.0mph /  24.1km/h 77% 0.00in /  0mm
12:04 42.4 °F /  5.8 °C 35.7 °F /  2.1 °C 30.00in /  1015.8hPa WSW 8.0mph /  12.9km/h 13.0mph /  20.9km/h 77% 0.00in /  0mm
12:09 42.7 °F /  5.9 °C 35.7 °F /  2.1 °C 30.00in /  1015.8hPa WNW 12.0mph /  19.3km/h 16.0mph /  25.7km/h 76% 0.00in /  0mm
12:14 42.7 °F /  5.9 °C 35.7 °F /  2.1 °C 29.99in /  1015.5hPa SW 7.0mph /  11.3km/h 15.0mph /  24.1km/h 76% 0.00in /  0mm
12:19 42.9 °F /  6.1 °C 35.9 °F /  2.2 °C 29.99in /  1015.5hPa WSW 10.0mph /  16.1km/h 13.0mph /  20.9km/h 76% 0.00in /  0mm
12:24 42.9 °F /  6.1 °C 36.2 °F /  2.3 °C 29.99in /  1015.5hPa SW 8.0mph /  12.9km/h 15.0mph /  24.1km/h 77% 0.00in /  0mm
12:29 43.4 °F /  6.3 °C 36.3 °F /  2.4 °C 30.00in /  1015.8hPa SW 8.0mph /  12.9km/h 15.0mph /  24.1km/h 76% 0.00in /  0mm
12:34 43.3 °F /  6.3 °C 36.2 °F /  2.3 °C 30.00in /  1015.8hPa SW 8.0mph /  12.9km/h 16.0mph /  25.7km/h 76% 0.00in /  0mm
12:39 43.5 °F /  6.4 °C 36.1 °F /  2.3 °C 30.00in /  1015.8hPa WSW 8.0mph /  12.9km/h 16.0mph /  25.7km/h 75% 0.00in /  0mm
12:44 43.4 °F /  6.3 °C 36.0 °F /  2.2 °C 30.00in /  1015.8hPa WSW 8.0mph /  12.9km/h 18.0mph /  29km/h 75% 0.00in /  0mm
12:49 43.8 °F /  6.6 °C 36.7 °F /  2.6 °C 29.99in /  1015.5hPa SW 6.0mph /  9.7km/h 15.0mph /  24.1km/h 76% 0.00in /  0mm
12:54 44.2 °F /  6.8 °C 37.1 °F /  2.8 °C 30.00in /  1015.8hPa WSW 7.0mph /  11.3km/h 15.0mph /  24.1km/h 76% 0.00in /  0mm
12:59 43.9 °F /  6.6 °C 36.1 °F /  2.3 °C 29.99in /  1015.5hPa WSW 7.0mph /  11.3km/h 16.0mph /  25.7km/h 74% 0.00in /  0mm
13:04 43.5 °F /  6.4 °C 36.1 °F /  2.3 °C 29.99in /  1015.5hPa WSW 7.0mph /  11.3km/h 14.0mph /  22.5km/h 75% 0.00in /  0mm
13:09 43.9 °F /  6.6 °C 36.8 °F /  2.7 °C 29.99in /  1015.5hPa SW 7.0mph /  11.3km/h 13.0mph /  20.9km/h 76% 0.00in /  0mm
13:14 44.0 °F /  6.7 °C 36.2 °F /  2.3 °C 30.00in /  1015.8hPa SW 11.0mph /  17.7km/h 15.0mph /  24.1km/h 74% 0.00in /  0mm
13:19 43.0 °F /  6.1 °C 36.0 °F /  2.2 °C 29.99in /  1015.5hPa WSW 13.0mph /  20.9km/h 17.0mph /  27.4km/h 76% 0.00in /  0mm
13:24 43.8 °F /  6.6 °C 36.7 °F /  2.6 °C 29.99in /  1015.5hPa WNW 7.0mph /  11.3km/h 15.0mph /  24.1km/h 76% 0.00in /  0mm
13:29 43.5 °F /  6.4 °C 36.1 °F /  2.3 °C 29.99in /  1015.5hPa WSW 9.0mph /  14.5km/h 17.0mph /  27.4km/h 75% 0.00in /  0mm
13:34 43.1 °F /  6.2 °C 35.4 °F /  1.9 °C 29.99in /  1015.5hPa WSW 10.0mph /  16.1km/h 17.0mph /  27.4km/h 74% 0.00in /  0mm
13:39 44.0 °F /  6.7 °C 36.6 °F /  2.6 °C 29.98in /  1015.1hPa WSW 9.0mph /  14.5km/h 17.0mph /  27.4km/h 75% 0.00in /  0mm
13:44 43.6 °F /  6.4 °C 35.9 °F /  2.2 °C 29.98in /  1015.1hPa WSW 8.0mph /  12.9km/h 16.0mph /  25.7km/h 74% 0.00in /  0mm
13:49 44.4 °F /  6.9 °C 35.9 °F /  2.2 °C 29.98in /  1015.1hPa WSW 8.0mph /  12.9km/h 16.0mph /  25.7km/h 72% 0.00in /  0mm
13:54 44.7 °F /  7.1 °C 36.2 °F /  2.3 °C 29.98in /  1015.1hPa WSW 7.0mph /  11.3km/h 17.0mph /  27.4km/h 72% 0.00in /  0mm
13:59 44.3 °F /  6.8 °C 35.8 °F /  2.1 °C 29.98in /  1015.1hPa SW 9.0mph /  14.5km/h 19.0mph /  30.6km/h 72% 0.00in /  0mm
14:04 43.9 °F /  6.6 °C 35.1 °F /  1.7 °C 29.97in /  1014.8hPa WSW 12.0mph /  19.3km/h 21.0mph /  33.8km/h 71% 0.00in /  0mm
14:09 44.0 °F /  6.7 °C 35.2 °F /  1.8 °C 29.97in /  1014.8hPa SW 13.0mph /  20.9km/h 18.0mph /  29km/h 71% 0.00in /  0mm
14:14 44.0 °F /  6.7 °C 34.8 °F /  1.6 °C 29.97in /  1014.8hPa SW 7.0mph /  11.3km/h 18.0mph /  29km/h 70% 0.00in /  0mm
14:19 44.8 °F /  7.1 °C 36.0 °F /  2.2 °C 29.97in /  1014.8hPa SW 5.0mph /  8km/h 14.0mph /  22.5km/h 71% 0.00in /  0mm
14:24 45.6 °F /  7.6 °C 36.7 °F /  2.6 °C 29.96in /  1014.4hPa South 9.0mph /  14.5km/h 12.0mph /  19.3km/h 71% 0.00in /  0mm
14:29 45.5 °F /  7.5 °C 35.2 °F /  1.8 °C 29.96in /  1014.4hPa West 5.0mph /  8km/h 18.0mph /  29km/h 67% 0.00in /  0mm
14:34 45.4 °F /  7.4 °C 34.3 °F /  1.3 °C 29.96in /  1014.4hPa WSW 8.0mph /  12.9km/h 18.0mph /  29km/h 65% 0.00in /  0mm
14:39 45.6 °F /  7.6 °C 34.5 °F /  1.4 °C 29.96in /  1014.4hPa WSW 8.0mph /  12.9km/h 16.0mph /  25.7km/h 65% 0.00in /  0mm
14:44 45.2 °F /  7.3 °C 33.3 °F /  0.7 °C 29.95in /  1014.1hPa WSW 8.0mph /  12.9km/h 16.0mph /  25.7km/h 63% 0.00in /  0mm
14:49 45.8 °F /  7.7 °C 34.3 °F /  1.3 °C 29.95in /  1014.1hPa WSW 8.0mph /  12.9km/h 16.0mph /  25.7km/h 64% 0.00in /  0mm
14:54 45.4 °F /  7.4 °C 32.7 °F /  0.4 °C 29.95in /  1014.1hPa WSW 8.0mph /  12.9km/h 15.0mph /  24.1km/h 61% 0.00in /  0mm
14:59 45.6 °F /  7.6 °C 32.5 °F /  0.3 °C 29.95in /  1014.1hPa WSW 14.0mph /  22.5km/h 17.0mph /  27.4km/h 60% 0.00in /  0mm
15:04 45.1 °F /  7.3 °C 30.8 °F /  -0.7 °C 29.95in /  1014.1hPa WSW 9.0mph /  14.5km/h 19.0mph /  30.6km/h 57% 0.00in /  0mm
15:09 45.1 °F /  7.3 °C 29.9 °F /  -1.2 °C 29.95in /  1014.1hPa West 8.0mph /  12.9km/h 19.0mph /  30.6km/h 55% 0.00in /  0mm
15:14 45.6 °F /  7.6 °C 29.9 °F /  -1.2 °C 29.94in /  1013.8hPa West 8.0mph /  12.9km/h 16.0mph /  25.7km/h 54% 0.00in /  0mm
15:19 45.5 °F /  7.5 °C 28.4 °F /  -2 °C 29.94in /  1013.8hPa West 13.0mph /  20.9km/h 19.0mph /  30.6km/h 51% 0.00in /  0mm
15:24 45.5 °F /  7.5 °C 29.3 °F /  -1.5 °C 29.94in /  1013.8hPa WSW 9.0mph /  14.5km/h 16.0mph /  25.7km/h 53% 0.00in /  0mm
15:29 45.1 °F /  7.3 °C 28.0 °F /  -2.2 °C 29.94in /  1013.8hPa West 6.0mph /  9.7km/h 20.0mph /  32.2km/h 51% 0.00in /  0mm
15:34 45.5 °F /  7.5 °C 29.8 °F /  -1.2 °C 29.94in /  1013.8hPa WSW 10.0mph /  16.1km/h 20.0mph /  32.2km/h 54% 0.00in /  0mm
15:39 45.4 °F /  7.4 °C 28.8 °F /  -1.8 °C 29.93in /  1013.4hPa WSW 9.0mph /  14.5km/h 19.0mph /  30.6km/h 52% 0.00in /  0mm
15:44 45.3 °F /  7.4 °C 29.6 °F /  -1.3 °C 29.93in /  1013.4hPa WSW 9.0mph /  14.5km/h 16.0mph /  25.7km/h 54% 0.00in /  0mm
15:49 44.9 °F /  7.2 °C 29.7 °F /  -1.3 °C 29.93in /  1013.4hPa WSW 9.0mph /  14.5km/h 17.0mph /  27.4km/h 55% 0.00in /  0mm
15:54 44.9 °F /  7.2 °C 29.2 °F /  -1.6 °C 29.93in /  1013.4hPa WSW 10.0mph /  16.1km/h 19.0mph /  30.6km/h 54% 0.00in /  0mm
15:59 45.0 °F /  7.2 °C 28.9 °F /  -1.7 °C 29.93in /  1013.4hPa SSW 9.0mph /  14.5km/h 17.0mph /  27.4km/h 53% 0.00in /  0mm
16:04 45.4 °F /  7.4 °C 29.7 °F /  -1.3 °C 29.93in /  1013.4hPa WSW 9.0mph /  14.5km/h 17.0mph /  27.4km/h 54% 0.00in /  0mm
16:09 45.0 °F /  7.2 °C 28.4 °F /  -2 °C 29.93in /  1013.4hPa SW 9.0mph /  14.5km/h 21.0mph /  33.8km/h 52% 0.00in /  0mm
16:14 44.6 °F /  7 °C 29.4 °F /  -1.4 °C 29.93in /  1013.4hPa West 6.0mph /  9.7km/h 16.0mph /  25.7km/h 55% 0.00in /  0mm
16:19 44.8 °F /  7.1 °C 29.2 °F /  -1.6 °C 29.93in /  1013.4hPa WSW 11.0mph /  17.7km/h 17.0mph /  27.4km/h 54% 0.00in /  0mm
16:24 44.8 °F /  7.1 °C 29.6 °F /  -1.3 °C 29.92in /  1013.1hPa West 18.0mph /  29km/h 18.0mph /  29km/h 55% 0.00in /  0mm
16:29 44.5 °F /  6.9 °C 31.5 °F /  -0.3 °C 29.93in /  1013.4hPa SW 11.0mph /  17.7km/h 18.0mph /  29km/h 60% 0.00in /  0mm
16:34 44.7 °F /  7.1 °C 33.6 °F /  0.9 °C 29.92in /  1013.1hPa WSW 10.0mph /  16.1km/h 18.0mph /  29km/h 65% 0.00in /  0mm
16:39 44.2 °F /  6.8 °C 34.3 °F /  1.3 °C 29.92in /  1013.1hPa WSW 9.0mph /  14.5km/h 18.0mph /  29km/h 68% 0.00in /  0mm
16:44 43.8 °F /  6.6 °C 35.0 °F /  1.7 °C 29.92in /  1013.1hPa WSW 10.0mph /  16.1km/h 20.0mph /  32.2km/h 71% 0.00in /  0mm
16:49 43.6 °F /  6.4 °C 34.8 °F /  1.6 °C 29.92in /  1013.1hPa West 12.0mph /  19.3km/h 19.0mph /  30.6km/h 71% 0.00in /  0mm
16:54 43.4 °F /  6.3 °C 35.3 °F /  1.8 °C 29.92in /  1013.1hPa SW 12.0mph /  19.3km/h 17.0mph /  27.4km/h 73% 0.00in /  0mm
16:59 43.5 °F /  6.4 °C 35.4 °F /  1.9 °C 29.92in /  1013.1hPa SW 10.0mph /  16.1km/h 20.0mph /  32.2km/h 73% 0.00in /  0mm
17:04 43.4 °F /  6.3 °C 35.3 °F /  1.8 °C 29.92in /  1013.1hPa WSW 10.0mph /  16.1km/h 19.0mph /  30.6km/h 73% 0.00in /  0mm
17:09 43.0 °F /  6.1 °C 34.9 °F /  1.6 °C 29.92in /  1013.1hPa WSW 11.0mph /  17.7km/h 20.0mph /  32.2km/h 73% 0.00in /  0mm
17:14 42.7 °F /  5.9 °C 35.0 °F /  1.7 °C 29.92in /  1013.1hPa WSW 11.0mph /  17.7km/h 23.0mph /  37km/h 74% 0.00in /  0mm
17:19 42.4 °F /  5.8 °C 35.0 °F /  1.7 °C 29.92in /  1013.1hPa WSW 10.0mph /  16.1km/h 23.0mph /  37km/h 75% 0.00in /  0mm
17:24 42.5 °F /  5.8 °C 35.1 °F /  1.7 °C 29.92in /  1013.1hPa WSW 7.0mph /  11.3km/h 17.0mph /  27.4km/h 75% 0.00in /  0mm
17:29 42.6 °F /  5.9 °C 34.9 °F /  1.6 °C 29.92in /  1013.1hPa WSW 13.0mph /  20.9km/h 20.0mph /  32.2km/h 74% 0.00in /  0mm
17:39 42.2 °F /  5.7 °C 34.8 °F /  1.6 °C 29.92in /  1013.1hPa WSW 9.0mph /  14.5km/h 18.0mph /  29km/h 75% 0.00in /  0mm
17:44 42.0 °F /  5.6 °C 34.6 °F /  1.4 °C 29.92in /  1013.1hPa SW 10.0mph /  16.1km/h 15.0mph /  24.1km/h 75% 0.00in /  0mm
17:49 41.9 °F /  5.5 °C 34.9 °F /  1.6 °C 29.93in /  1013.4hPa West 8.0mph /  12.9km/h 15.0mph /  24.1km/h 76% 0.00in /  0mm
17:54 41.8 °F /  5.4 °C 34.8 °F /  1.6 °C 29.93in /  1013.4hPa WSW 4.0mph /  6.4km/h 17.0mph /  27.4km/h 76% 0.00in /  0mm
17:59 41.3 °F /  5.2 °C 34.6 °F /  1.4 °C 29.93in /  1013.4hPa WSW 7.0mph /  11.3km/h 13.0mph /  20.9km/h 77% 0.00in /  0mm
18:04 40.7 °F /  4.8 °C 34.0 °F /  1.1 °C 29.93in /  1013.4hPa WSW 11.0mph /  17.7km/h 14.0mph /  22.5km/h 77% 0.00in /  0mm
18:09 40.6 °F /  4.8 °C 34.3 °F /  1.3 °C 29.94in /  1013.8hPa WSW 8.0mph /  12.9km/h 17.0mph /  27.4km/h 78% 0.00in /  0mm
18:14 40.4 °F /  4.7 °C 34.1 °F /  1.2 °C 29.93in /  1013.4hPa WSW 9.0mph /  14.5km/h 18.0mph /  29km/h 78% 0.00in /  0mm
18:19 40.3 °F /  4.6 °C 34.3 °F /  1.3 °C 29.94in /  1013.8hPa WSW 9.0mph /  14.5km/h 18.0mph /  29km/h 79% 0.00in /  0mm
18:24 39.7 °F /  4.3 °C 34.0 °F /  1.1 °C 29.94in /  1013.8hPa WSW 8.0mph /  12.9km/h 16.0mph /  25.7km/h 80% 0.00in /  0mm
18:29 39.5 °F /  4.2 °C 33.8 °F /  1 °C 29.94in /  1013.8hPa WSW 8.0mph /  12.9km/h 16.0mph /  25.7km/h 80% 0.00in /  0mm
18:34 39.4 °F /  4.1 °C 33.7 °F /  0.9 °C 29.94in /  1013.8hPa WSW 9.0mph /  14.5km/h 16.0mph /  25.7km/h 80% 0.00in /  0mm
18:39 39.3 °F /  4.1 °C 34.0 °F /  1.1 °C 29.94in /  1013.8hPa WSW 5.0mph /  8km/h 13.0mph /  20.9km/h 81% 0.00in /  0mm
18:44 39.1 °F /  3.9 °C 33.8 °F /  1 °C 29.95in /  1014.1hPa West 6.0mph /  9.7km/h 13.0mph /  20.9km/h 81% 0.00in /  0mm
18:49 38.9 °F /  3.8 °C 33.6 °F /  0.9 °C 29.95in /  1014.1hPa WNW 4.0mph /  6.4km/h 9.0mph /  14.5km/h 81% 0.00in /  0mm
18:54 39.0 °F /  3.9 °C 33.7 °F /  0.9 °C 29.95in /  1014.1hPa West 6.0mph /  9.7km/h 10.0mph /  16.1km/h 81% 0.00in /  0mm
18:59 39.1 °F /  3.9 °C 33.8 °F /  1 °C 29.96in /  1014.4hPa WSW 4.0mph /  6.4km/h 8.0mph /  12.9km/h 81% 0.00in /  0mm
19:04 38.9 °F /  3.8 °C 33.6 °F /  0.9 °C 29.96in /  1014.4hPa West 6.0mph /  9.7km/h 9.0mph /  14.5km/h 81% 0.00in /  0mm
19:09 38.8 °F /  3.8 °C 33.5 °F /  0.8 °C 29.96in /  1014.4hPa WSW 3.0mph /  4.8km/h 9.0mph /  14.5km/h 81% 0.00in /  0mm
19:14 38.8 °F /  3.8 °C 33.5 °F /  0.8 °C 29.96in /  1014.4hPa WSW 3.0mph /  4.8km/h 7.0mph /  11.3km/h 81% 0.00in /  0mm
19:19 39.2 °F /  4 °C 32.9 °F /  0.5 °C 29.96in /  1014.4hPa WNW 4.0mph /  6.4km/h 14.0mph /  22.5km/h 78% 0.00in /  0mm
19:24 40.9 °F /  4.9 °C 29.7 °F /  -1.3 °C 29.96in /  1014.4hPa WNW 7.0mph /  11.3km/h 14.0mph /  22.5km/h 64% 0.00in /  0mm
19:29 41.4 °F /  5.2 °C 28.5 °F /  -1.9 °C 29.97in /  1014.8hPa WNW 8.0mph /  12.9km/h 15.0mph /  24.1km/h 60% 0.00in /  0mm
19:34 41.5 °F /  5.3 °C 28.6 °F /  -1.9 °C 29.97in /  1014.8hPa NW 10.0mph /  16.1km/h 13.0mph /  20.9km/h 60% 0.00in /  0mm
19:39 41.2 °F /  5.1 °C 28.4 °F /  -2 °C 29.97in /  1014.8hPa NNW 4.0mph /  6.4km/h 14.0mph /  22.5km/h 60% 0.00in /  0mm
19:44 40.9 °F /  4.9 °C 28.5 °F /  -1.9 °C 29.97in /  1014.8hPa NW 7.0mph /  11.3km/h 22.0mph /  35.4km/h 61% 0.00in /  0mm
19:49 40.6 °F /  4.8 °C 28.2 °F /  -2.1 °C 29.97in /  1014.8hPa NW 7.0mph /  11.3km/h 22.0mph /  35.4km/h 61% 0.00in /  0mm
19:54 40.4 °F /  4.7 °C 28.4 °F /  -2 °C 29.97in /  1014.8hPa NNW 7.0mph /  11.3km/h 18.0mph /  29km/h 62% 0.00in /  0mm
19:59 40.1 °F /  4.5 °C 28.1 °F /  -2.2 °C 29.98in /  1015.1hPa NW 3.0mph /  4.8km/h 16.0mph /  25.7km/h 62% 0.00in /  0mm
20:04 39.8 °F /  4.3 °C 28.2 °F /  -2.1 °C 29.98in /  1015.1hPa NW 12.0mph /  19.3km/h 16.0mph /  25.7km/h 63% 0.00in /  0mm
20:09 39.6 °F /  4.2 °C 28.0 °F /  -2.2 °C 29.98in /  1015.1hPa NW 4.0mph /  6.4km/h 14.0mph /  22.5km/h 63% 0.00in /  0mm
20:14 39.1 °F /  3.9 °C 27.6 °F /  -2.4 °C 29.98in /  1015.1hPa NW 7.0mph /  11.3km/h 15.0mph /  24.1km/h 63% 0.00in /  0mm
20:19 38.9 °F /  3.8 °C 27.4 °F /  -2.6 °C 29.99in /  1015.5hPa NW 7.0mph /  11.3km/h 15.0mph /  24.1km/h 63% 0.00in /  0mm
20:24 38.8 °F /  3.8 °C 26.9 °F /  -2.8 °C 29.99in /  1015.5hPa NW 7.0mph /  11.3km/h 15.0mph /  24.1km/h 62% 0.00in /  0mm
20:29 38.6 °F /  3.7 °C 26.7 °F /  -2.9 °C 30.00in /  1015.8hPa NW 7.0mph /  11.3km/h 16.0mph /  25.7km/h 62% 0.00in /  0mm
20:34 38.4 °F /  3.6 °C 26.5 °F /  -3.1 °C 30.00in /  1015.8hPa NW 7.0mph /  11.3km/h 16.0mph /  25.7km/h 62% 0.00in /  0mm
20:39 38.2 °F /  3.4 °C 26.3 °F /  -3.2 °C 30.00in /  1015.8hPa NW 6.0mph /  9.7km/h 14.0mph /  22.5km/h 62% 0.00in /  0mm
20:44 38.1 °F /  3.4 °C 26.2 °F /  -3.2 °C 30.01in /  1016.1hPa NW 7.0mph /  11.3km/h 14.0mph /  22.5km/h 62% 0.00in /  0mm
20:49 37.9 °F /  3.3 °C 26.0 °F /  -3.3 °C 30.01in /  1016.1hPa NW 13.0mph /  20.9km/h 16.0mph /  25.7km/h 62% 0.00in /  0mm
20:54 37.7 °F /  3.2 °C 25.8 °F /  -3.4 °C 30.01in /  1016.1hPa West 6.0mph /  9.7km/h 13.0mph /  20.9km/h 62% 0.00in /  0mm
20:59 37.5 °F /  3.1 °C 26.0 °F /  -3.3 °C 30.02in /  1016.5hPa WNW 5.0mph /  8km/h 14.0mph /  22.5km/h 63% 0.00in /  0mm
21:04 37.2 °F /  2.9 °C 25.8 °F /  -3.4 °C 30.02in /  1016.5hPa NW 7.0mph /  11.3km/h 13.0mph /  20.9km/h 63% 0.00in /  0mm
21:09 36.9 °F /  2.7 °C 25.5 °F /  -3.6 °C 30.02in /  1016.5hPa North 11.0mph /  17.7km/h 17.0mph /  27.4km/h 63% 0.00in /  0mm
21:14 36.6 °F /  2.6 °C 25.2 °F /  -3.8 °C 30.02in /  1016.5hPa NW 12.0mph /  19.3km/h 21.0mph /  33.8km/h 63% 0.00in /  0mm
21:19 36.2 °F /  2.3 °C 24.8 °F /  -4 °C 30.03in /  1016.8hPa NW 10.0mph /  16.1km/h 21.0mph /  33.8km/h 63% 0.00in /  0mm
21:24 35.8 °F /  2.1 °C 24.4 °F /  -4.2 °C 30.03in /  1016.8hPa NW 8.0mph /  12.9km/h 18.0mph /  29km/h 63% 0.00in /  0mm
21:29 35.5 °F /  1.9 °C 24.1 °F /  -4.4 °C 30.03in /  1016.8hPa NW 8.0mph /  12.9km/h 19.0mph /  30.6km/h 63% 0.00in /  0mm
21:34 35.2 °F /  1.8 °C 24.2 °F /  -4.3 °C 30.03in /  1016.8hPa NW 8.0mph /  12.9km/h 19.0mph /  30.6km/h 64% 0.00in /  0mm
21:39 35.0 °F /  1.7 °C 24.0 °F /  -4.4 °C 30.03in /  1016.8hPa NW 7.0mph /  11.3km/h 15.0mph /  24.1km/h 64% 0.00in /  0mm
21:44 34.7 °F /  1.5 °C 23.8 °F /  -4.6 °C 30.03in /  1016.8hPa NW 3.0mph /  4.8km/h 10.0mph /  16.1km/h 64% 0.00in /  0mm
21:49 34.4 °F /  1.3 °C 23.5 °F /  -4.7 °C 30.03in /  1016.8hPa WNW 11.0mph /  17.7km/h 17.0mph /  27.4km/h 64% 0.00in /  0mm
21:54 34.5 °F /  1.4 °C 23.6 °F /  -4.7 °C 30.03in /  1016.8hPa WNW 7.0mph /  11.3km/h 18.0mph /  29km/h 64% 0.00in /  0mm
21:59 34.4 °F /  1.3 °C 23.5 °F /  -4.7 °C 30.03in /  1016.8hPa North 2.0mph /  3.2km/h 12.0mph /  19.3km/h 64% 0.00in /  0mm
22:04 34.1 °F /  1.2 °C 23.6 °F /  -4.7 °C 30.03in /  1016.8hPa WNW 7.0mph /  11.3km/h 10.0mph /  16.1km/h 65% 0.00in /  0mm
22:09 34.0 °F /  1.1 °C 23.5 °F /  -4.7 °C 30.04in /  1017.2hPa West 5.0mph /  8km/h 18.0mph /  29km/h 65% 0.00in /  0mm
22:14 33.9 °F /  1.1 °C 23.7 °F /  -4.6 °C 30.04in /  1017.2hPa NW 8.0mph /  12.9km/h 18.0mph /  29km/h 66% 0.00in /  0mm
22:19 33.8 °F /  1 °C 23.6 °F /  -4.7 °C 30.04in /  1017.2hPa WNW 9.0mph /  14.5km/h 16.0mph /  25.7km/h 66% 0.00in /  0mm
22:24 33.6 °F /  0.9 °C 23.8 °F /  -4.6 °C 30.04in /  1017.2hPa NW 7.0mph /  11.3km/h 16.0mph /  25.7km/h 67% 0.00in /  0mm
22:29 33.5 °F /  0.8 °C 24.1 °F /  -4.4 °C 30.04in /  1017.2hPa North 9.0mph /  14.5km/h 15.0mph /  24.1km/h 68% 0.00in /  0mm
22:34 33.4 °F /  0.8 °C 24.3 °F /  -4.3 °C 30.05in /  1017.5hPa NW 4.0mph /  6.4km/h 13.0mph /  20.9km/h 69% 0.00in /  0mm
22:39 33.2 °F /  0.7 °C 24.1 °F /  -4.4 °C 30.05in /  1017.5hPa NW 8.0mph /  12.9km/h 14.0mph /  22.5km/h 69% 0.00in /  0mm
22:44 33.3 °F /  0.7 °C 24.6 °F /  -4.1 °C 30.05in /  1017.5hPa NW 9.0mph /  14.5km/h 13.0mph /  20.9km/h 70% 0.00in /  0mm
22:49 33.4 °F /  0.8 °C 24.7 °F /  -4.1 °C 30.05in /  1017.5hPa NW 4.0mph /  6.4km/h 12.0mph /  19.3km/h 70% 0.00in /  0mm
22:54 33.5 °F /  0.8 °C 25.1 °F /  -3.8 °C 30.05in /  1017.5hPa WNW 7.0mph /  11.3km/h 14.0mph /  22.5km/h 71% 0.00in /  0mm
22:59 33.6 °F /  0.9 °C 25.2 °F /  -3.8 °C 30.05in /  1017.5hPa NW 7.0mph /  11.3km/h 15.0mph /  24.1km/h 71% 0.00in /  0mm
23:04 33.5 °F /  0.8 °C 25.1 °F /  -3.8 °C 30.05in /  1017.5hPa NW 7.0mph /  11.3km/h 16.0mph /  25.7km/h 71% 0.00in /  0mm
23:09 33.5 °F /  0.8 °C 25.1 °F /  -3.8 °C 30.05in /  1017.5hPa NW 7.0mph /  11.3km/h 16.0mph /  25.7km/h 71% 0.00in /  0mm
23:14 33.4 °F /  0.8 °C 25.0 °F /  -3.9 °C 30.05in /  1017.5hPa NW 6.0mph /  9.7km/h 16.0mph /  25.7km/h 71% 0.00in /  0mm
23:19 33.4 °F /  0.8 °C 25.0 °F /  -3.9 °C 30.06in /  1017.8hPa NNW 4.0mph /  6.4km/h 12.0mph /  19.3km/h 71% 0.00in /  0mm
23:24 33.5 °F /  0.8 °C 25.4 °F /  -3.7 °C 30.06in /  1017.8hPa WNW 11.0mph /  17.7km/h 14.0mph /  22.5km/h 72% 0.00in /  0mm
23:29 33.7 °F /  0.9 °C 25.6 °F /  -3.6 °C 30.06in /  1017.8hPa NW 6.0mph /  9.7km/h 14.0mph /  22.5km/h 72% 0.00in /  0mm
23:34 33.7 °F /  0.9 °C 25.6 °F /  -3.6 °C 30.06in /  1017.8hPa West 11.0mph /  17.7km/h 13.0mph /  20.9km/h 72% 0.00in /  0mm
23:39 33.8 °F /  1 °C 25.7 °F /  -3.5 °C 30.06in /  1017.8hPa WNW 8.0mph /  12.9km/h 15.0mph /  24.1km/h 72% 0.00in /  0mm
23:44 33.9 °F /  1.1 °C 25.8 °F /  -3.4 °C 30.06in /  1017.8hPa NE 10.0mph /  16.1km/h 16.0mph /  25.7km/h 72% 0.00in /  0mm
23:49 33.6 °F /  0.9 °C 25.5 °F /  -3.6 °C 30.07in /  1018.2hPa NNE 7.0mph /  11.3km/h 15.0mph /  24.1km/h 72% 0.00in /  0mm
23:54 33.2 °F /  0.7 °C 25.1 °F /  -3.8 °C 30.07in /  1018.2hPa NNW 11.0mph /  17.7km/h 13.0mph /  20.9km/h 72% 0.00in /  0mm
23:59 32.9 °F /  0.5 °C 25.2 °F /  -3.8 °C 30.07in /  1018.2hPa NNW 7.0mph /  11.3km/h 16.0mph /  25.7km/h 73% 0.00in /  0mm
Buffalo, New York, USA
Compliments of Weather Underground - 2.5 mb